Latest Weather Observations for Cobar Airport

IDN60801

Issued at 10:03 pm EST Monday 26 September 2016 (issued every 30 minutes, with the page automatically refreshed every 10 minutes)

About weather observations | Map of weather stations | Latest weather observations for NSW | Other Formats
Station Details ID: 048237 Name: COBAR AIRPORT AWS Lat: -31.54 Lon: 145.80 Height: 218.0 m
Data from the previous 72 hours. | See also: Recent months at Cobar Airport
Date/Time
EST
Temp
°C
App
Temp
°C
Dew
Point
°C
Rel
Hum
%
Delta-T
°C
Wind Press
QNH
hPa
Press
MSL
hPa
Rain since
9am
mm
Dir  Spd
km/h
Gust
km/h
Spd
kts
Gust
kts
26/10:00pm 9.1 6.9 7.7 91 0.7 NE 9 9 5 5 1015.5 1015.2 0.0
26/09:30pm 9.2 8.7 7.8 91 0.7 CALM 0 0 0 0 1015.8 1015.5 0.0
26/09:00pm 9.5 8.3 8.1 91 0.7 ENE 4 7 2 4 1015.4 1015.1 0.0
26/08:30pm 10.3 8.7 8.6 89 0.8 NE 7 9 4 5 1014.9 1014.6 0.0
26/08:00pm 10.8 9.3 8.6 86 1.1 NE 6 7 3 4 1014.8 1014.5 0.0
26/07:30pm 11.7 10.0 8.2 79 1.7 NE 7 11 4 6 1014.3 1014.1 0.0
26/07:00pm 12.5 11.2 7.6 72 2.4 N 4 7 2 4 1013.9 1013.7 0.0
26/06:30pm 15.3 13.1 5.5 52 4.7 W 6 7 3 4 1013.9 1013.7 0.0
26/06:00pm 16.4 13.5 4.8 46 5.6 W 9 15 5 8 1013.9 1013.7 0.0
26/05:30pm 17.6 13.5 4.2 41 6.4 W 15 22 8 12 1013.8 1013.5 0.0
26/05:00pm 18.0 13.1 3.9 39 6.7 W 19 24 10 13 1013.6 1013.3 0.0
26/04:30pm 18.4 13.2 3.5 37 7.0 WSW 20 30 11 16 1013.6 1013.3 0.0
26/04:00pm 18.6 13.7 4.0 38 7.0 WSW 19 28 10 15 1013.5 1013.2 0.0
26/03:30pm 19.2 14.9 5.3 40 6.9 WSW 17 35 9 19 1013.6 1013.3 0.0
26/03:00pm 19.1 14.3 5.6 41 6.7 WSW 20 32 11 17 1013.7 1013.4 0.0
26/02:30pm 18.6 14.1 4.4 39 6.9 WSW 17 24 9 13 1013.9 1013.7 0.0
26/02:00pm 17.8 13.3 4.0 40 6.6 W 17 28 9 15 1014.1 1013.9 0.0
26/01:30pm 18.0 13.6 4.9 42 6.4 WSW 17 28 9 15 1014.3 1014.1 0.0
26/01:00pm 16.6 11.9 3.3 41 6.2 SW 17 24 9 13 1014.7 1014.4 0.0
26/12:30pm 16.8 12.7 4.2 43 6.0 W 15 22 8 12 1015.3 1015.0 0.0
26/12:00pm 17.1 12.8 5.4 46 5.7 WNW 17 28 9 15 1015.5 1015.2 0.0
26/11:30am 16.2 12.8 3.9 44 5.8 SW 11 19 6 10 1016.1 1015.8 0.0
26/11:00am 15.7 12.0 4.7 48 5.2 SW 13 22 7 12 1016.5 1016.2 0.0
26/10:30am 15.9 12.5 5.8 51 4.9 SW 13 20 7 11 1017.2 1016.9 0.0
26/10:00am 15.3 11.4 5.5 52 4.7 SW 15 22 8 12 1017.3 1017.0 0.0
26/09:30am 14.5 10.2 3.0 46 5.2 SW 15 20 8 11 1017.6 1017.3 0.0
26/09:00am 13.8 11.7 4.1 52 4.5 NW 4 9 2 5 1017.6 1017.3 0.2
26/08:30am 13.0 12.4 7.5 69 2.7 CALM 0 6 0 3 1017.2 1016.9 0.2
26/08:00am 10.5 10.2 8.8 89 0.8 CALM 0 6 0 3 1017.0 1016.7 0.2
26/07:30am 8.3 7.9 8.2 99 0.0 CALM 0 0 0 0 1016.9 1016.6 0.2
26/07:00am 5.8 4.8 5.7 99 0.0 CALM 0 0 0 0 1016.7 1016.4 0.2
26/06:30am 3.5 2.1 3.4 99 0.0 CALM 0 0 0 0 1016.3 1016.0 0.2
26/06:00am 3.1 1.6 3.0 99 0.0 CALM 0 0 0 0 1016.1 1015.8 0.2
26/05:30am 3.2 1.7 3.1 99 0.0 CALM 0 0 0 0 1015.8 1015.5 0.2
26/05:00am 3.4 2.0 3.3 99 0.0 CALM 0 0 0 0 1015.7 1015.4 0.2
26/04:30am 3.5 2.1 3.4 99 0.0 CALM 0 0 0 0 1015.6 1015.3 0.2
26/04:00am 3.7 2.3 3.6 99 0.0 CALM 0 0 0 0 1015.6 1015.3 0.2
26/03:30am 4.0 2.7 3.9 99 0.0 CALM 0 0 0 0 1015.6 1015.3 0.2
26/03:00am 4.4 3.1 4.3 99 0.0 CALM 0 0 0 0 1015.7 1015.4 0.2
26/02:30am 4.7 2.7 4.6 99 0.0 W 4 7 2 4 1015.8 1015.5 0.2
26/02:00am 4.7 2.4 4.6 99 0.0 W 6 7 3 4 1015.9 1015.6 0.2
26/01:30am 4.8 3.6 4.7 99 0.0 CALM 0 0 0 0 1016.0 1015.7 0.2
26/01:00am 5.6 4.6 5.5 99 0.0 CALM 0 0 0 0 1015.9 1015.6 0.2
26/12:30am 5.7 4.7 5.6 99 0.0 CALM 0 0 0 0 1016.1 1015.8 0.2
26/12:00am 5.5 4.4 5.2 98 0.1 CALM 0 0 0 0 1016.0 1015.7 0.2
 
Date/Time
EST
Temp
°C
App
Temp
°C
Dew
Point
°C
Rel
Hum
%
Delta-T
°C
Wind Press
QNH
hPa
Press
MSL
hPa
Rain since
9am
mm
Dir  Spd
km/h
Gust
km/h
Spd
kts
Gust
kts
25/11:30pm 6.4 5.6 6.3 99 0.0 CALM 0 0 0 0 1015.9 1015.6 0.2
25/11:00pm 6.8 6.0 6.7 99 0.0 CALM 0 0 0 0 1016.2 1015.9 0.2
25/10:30pm 7.1 5.2 6.7 97 0.2 WNW 6 7 3 4 1015.8 1015.5 0.2
25/10:00pm 7.2 6.4 6.6 96 0.3 CALM 0 0 0 0 1015.9 1015.6 0.2
25/09:30pm 8.1 6.7 7.3 95 0.4 SW 4 7 2 4 1015.4 1015.1 0.2
25/09:00pm 8.3 7.8 7.7 96 0.3 CALM 0 0 0 0 1015.3 1015.0 0.2
25/08:30pm 8.9 8.3 7.5 91 0.7 CALM 0 0 0 0 1015.0 1014.7 0.2
25/08:00pm 9.6 9.2 8.2 91 0.7 CALM 0 0 0 0 1014.5 1014.3 0.2
25/07:30pm 10.4 10.1 8.5 88 0.9 CALM 0 0 0 0 1014.2 1014.0 0.2
25/07:00pm 11.8 11.0 8.3 79 1.7 SSW 2 6 1 3 1013.7 1013.4 0.2
25/06:30pm 13.3 11.1 6.4 63 3.3 SSW 7 9 4 5 1013.3 1013.0 0.2
25/06:00pm 15.2 11.7 5.4 52 4.7 SSW 13 17 7 9 1013.3 1013.0 0.2
25/05:30pm 16.4 12.3 4.4 45 5.7 SSW 15 20 8 11 1012.8 1012.5 0.2
25/05:00pm 17.0 12.6 5.0 45 5.8 SW 17 26 9 14 1012.6 1012.3 0.2
25/04:30pm 17.2 12.9 5.2 45 5.8 SW 17 22 9 12 1012.5 1012.2 0.2
25/04:00pm 17.6 13.9 6.2 47 5.7 SW 15 32 8 17 1012.4 1012.1 0.2
25/03:30pm 17.3 13.0 6.8 50 5.3 SSW 19 26 10 14 1012.5 1012.2 0.2
25/03:00pm 17.3 12.4 7.1 51 5.1 SW 22 32 12 17 1012.3 1012.0 0.2
25/02:30pm 16.6 11.3 7.0 53 4.8 SSW 24 33 13 18 1012.5 1012.2 0.2
25/02:00pm 17.1 13.0 8.5 57 4.5 SW 20 30 11 16 1012.8 1012.5 0.2
25/01:30pm 16.1 11.9 8.3 60 4.0 SW 20 33 11 18 1013.0 1012.7 0.0
25/01:00pm 15.3 11.3 8.1 62 3.7 SW 19 26 10 14 1013.1 1012.8 0.0
25/12:30pm 14.5 9.9 8.2 66 3.2 SW 22 32 12 17 1013.1 1012.8 0.0
25/12:00pm 15.0 10.8 9.6 70 2.8 SSW 22 35 12 19 1013.0 1012.7 0.0
25/11:30am 14.4 9.6 9.0 70 2.8 SSW 24 32 13 17 1013.2 1012.9 0.0
25/11:00am 13.3 9.7 10.5 83 1.5 SW 20 32 11 17 1013.2 1012.9 0.0
25/10:30am 14.1 9.9 11.1 82 1.6 SSW 24 37 13 20 1012.8 1012.5 0.0
25/10:25am 13.7 9.3 10.3 80 1.8 SW 24 37 13 20 1012.8 1012.5 0.0
25/10:00am 13.2 9.6 11.8 91 0.8 SW 22 33 12 18 1012.7 1012.4 0.0
25/09:30am 12.7 8.2 11.4 92 0.7 SW 26 35 14 19 1012.4 1012.1 0.0
25/09:00am 12.8 9.9 12.3 97 0.3 SW 19 28 10 15 1011.6 1011.3 3.2
25/08:38am 12.5 9.6 12.3 99 0.1 SW 19 24 10 13 1011.4 1011.1 3.2
25/08:33am 12.5 10.0 12.2 98 0.2 SW 17 24 9 13 1011.4 1011.1 3.2
25/08:30am 12.6 10.1 12.4 99 0.1 SW 17 20 9 11 1011.3 1011.0 3.2
25/08:00am 12.1 9.5 11.9 99 0.1 SW 17 22 9 12 1011.0 1010.7 3.2
25/07:55am 12.1 9.8 11.9 99 0.1 SW 15 20 8 11 1010.9 1010.6 3.2
25/07:46am 12.0 9.7 11.8 99 0.1 SW 15 22 8 12 1010.7 1010.4 3.2
25/07:34am 12.0 9.7 11.8 99 0.1 SW 15 20 8 11 1010.5 1010.2 3.2
25/07:30am 12.0 9.7 11.8 99 0.1 SW 15 20 8 11 1010.5 1010.2 3.2
25/07:11am 11.6 8.4 11.4 99 0.1 SW 19 24 10 13 1010.2 1009.9 3.2
25/07:02am 11.5 8.3 11.3 99 0.1 SW 19 28 10 15 1010.0 1009.6 3.2
25/07:00am 11.5 8.3 11.3 99 0.1 SW 19 28 10 15 1010.0 1009.6 3.2
25/06:45am 11.3 9.2 11.1 99 0.1 SW 13 19 7 10 1009.4 1009.1 3.2
25/06:41am 11.2 9.4 11.0 99 0.1 SW 11 17 6 9 1009.3 1009.0 3.2
25/06:38am 10.9 9.1 10.7 99 0.1 SW 11 15 6 8 1009.3 1009.0 3.2
25/06:30am 10.2 8.6 10.1 99 0.1 SW 9 13 5 7 1009.1 1008.8 3.2
25/06:28am 10.0 8.3 9.9 99 0.1 WSW 9 11 5 6 1009.1 1008.8 3.2
25/06:00am 10.0 8.7 9.9 99 0.1 SSW 7 9 4 5 1008.8 1008.5 3.2
25/05:53am 10.6 9.6 10.4 99 0.1 SSW 6 7 3 4 1008.6 1008.3 3.2
25/05:30am 11.0 9.9 10.8 99 0.1 SSW 7 9 4 5 1008.3 1008.0 3.2
25/05:00am 11.9 10.7 11.7 99 0.1 SSW 9 13 5 7 1008.1 1007.8 3.2
25/04:30am 11.8 11.0 11.6 99 0.1 SSW 7 9 4 5 1007.8 1007.5 3.2
25/04:00am 12.0 10.9 11.8 99 0.1 SSW 9 11 5 6 1007.6 1007.3 3.0
25/03:30am 12.3 11.6 12.1 99 0.1 SW 7 11 4 6 1007.4 1007.1 2.2
25/03:00am 12.5 11.1 12.3 99 0.1 SSW 11 13 6 7 1007.2 1006.9 1.8
25/02:30am 12.6 11.6 12.4 99 0.1 S 9 11 5 6 1007.2 1006.9 1.8
25/02:00am 12.8 12.3 12.5 98 0.2 E 7 9 4 5 1007.2 1006.9 1.8
25/01:30am 12.9 12.6 12.6 98 0.2 ESE 6 7 3 4 1007.8 1007.5 1.8
25/01:00am 13.0 13.7 12.2 95 0.4 CALM 0 2 0 1 1008.3 1008.0 1.4
25/12:30am 13.0 12.4 11.7 92 0.7 NW 6 9 3 5 1008.4 1008.1 1.4
25/12:00am 13.4 10.9 10.9 85 1.3 NNW 15 20 8 11 1008.6 1008.3 1.0
 
Date/Time
EST
Temp
°C
App
Temp
°C
Dew
Point
°C
Rel
Hum
%
Delta-T
°C
Wind Press
QNH
hPa
Press
MSL
hPa
Rain since
9am
mm
Dir  Spd
km/h
Gust
km/h
Spd
kts
Gust
kts
24/11:30pm 13.5 14.1 13.2 98 0.2 NNE 2 9 1 5 1008.5 1008.2 1.0
24/11:00pm 13.4 14.4 13.1 98 0.2 CALM 0 0 0 0 1008.7 1008.4 0.8
24/10:30pm 13.4 12.9 12.6 95 0.4 ESE 7 9 4 5 1009.0 1008.7 0.8
24/10:00pm 13.6 13.0 12.2 91 0.8 E 7 11 4 6 1008.9 1008.6 0.6
24/09:30pm 14.9 14.3 12.2 84 1.5 NE 7 9 4 5 1009.2 1008.9 0.0
24/09:00pm 15.5 14.2 11.1 75 2.4 ENE 9 11 5 6 1009.1 1008.8 0.0
24/08:30pm 15.7 14.4 11.3 75 2.4 ENE 9 11 5 6 1009.2 1008.9 0.0
24/08:00pm 16.1 15.0 10.0 67 3.2 E 6 9 3 5 1009.3 1009.0 0.0
24/07:30pm 16.1 15.1 10.2 68 3.1 N 6 7 3 4 1009.0 1008.7 0.0
24/07:00pm 15.9 14.6 10.0 68 3.1 NNE 7 9 4 5 1009.0 1008.7 0.0
24/06:30pm 16.8 15.8 10.2 65 3.5 WSW 6 9 3 5 1008.7 1008.4 0.0
24/06:00pm 17.9 15.8 8.2 53 5.0 E 9 11 5 6 1007.7 1007.4 0.0
24/05:30pm 18.2 16.5 8.5 53 5.1 NE 7 9 4 5 1007.5 1007.2 0.0
24/05:00pm 19.0 16.8 6.2 43 6.4 N 7 9 4 5 1007.8 1007.5 0.0
24/04:30pm 19.2 16.7 6.7 44 6.3 W 9 13 5 7 1008.2 1007.9 0.0
24/04:00pm 19.7 16.0 6.1 41 6.9 WNW 15 20 8 11 1008.5 1008.2 0.0
24/03:30pm 20.5 16.6 5.3 37 7.6 WNW 15 20 8 11 1009.0 1008.7 0.0
24/03:00pm 20.9 16.0 4.9 35 7.9 NW 20 30 11 16 1008.9 1008.6 0.0
24/02:30pm 20.7 15.4 5.1 36 7.7 WNW 22 28 12 15 1009.4 1009.1 0.0
24/02:00pm 21.2 17.4 5.9 37 7.8 NW 15 24 8 13 1009.0 1008.7 0.0
24/01:30pm 20.2 16.3 5.4 38 7.4 NW 15 32 8 17 1009.5 1009.2 0.0
24/01:00pm 20.0 15.0 4.5 36 7.6 WNW 20 32 11 17 1010.0 1009.6 0.0
24/12:30pm 19.7 14.7 4.6 37 7.4 NW 20 30 11 16 1010.0 1009.6 0.0
24/12:00pm 19.9 15.5 6.6 42 6.8 NW 19 26 10 14 1010.6 1010.3 0.0
24/11:30am 19.6 14.7 4.9 38 7.2 N 20 30 11 16 1011.2 1010.9 0.0
24/11:00am 19.5 14.9 5.6 40 6.9 NNW 19 30 10 16 1011.5 1011.2 0.0
24/10:30am 19.0 15.3 6.2 43 6.4 N 15 26 8 14 1011.9 1011.6 0.0
24/10:00am 18.8 14.9 7.3 47 5.9 N 17 22 9 12 1012.3 1012.0 0.0
24/09:30am 17.5 11.8 5.1 44 6.0 N 24 28 13 15 1012.5 1012.2 0.0
24/09:00am 16.8 12.7 6.3 50 5.2 N 17 22 9 12 1012.6 1012.3 0.0
24/08:30am 15.6 12.8 7.1 57 4.2 NE 11 17 6 9 1012.6 1012.3 0.0
24/08:00am 13.5 11.8 9.9 79 1.9 NE 9 15 5 8 1012.3 1012.0 0.0
24/07:30am 10.6 9.0 8.9 89 0.9 NE 7 9 4 5 1012.2 1011.9 0.0
24/07:00am 8.3 6.0 7.4 94 0.4 NE 9 11 5 6 1012.0 1011.7 0.0
24/06:30am 5.8 3.1 5.7 99 0.0 NE 9 11 5 6 1012.2 1011.9 0.0
24/06:00am 5.9 3.2 5.8 99 0.0 NE 9 11 5 6 1012.2 1011.9 0.0
24/05:30am 5.6 2.9 5.5 99 0.0 ENE 9 11 5 6 1012.0 1011.7 0.0
24/05:00am 5.2 2.4 5.1 99 0.0 NE 9 50 5 27 1011.9 1011.6 0.0
24/04:30am 5.6 2.9 5.5 99 0.0 ENE 9 11 5 6 1011.8 1011.5 0.0
24/04:00am 4.8 2.3 4.7 99 0.0 NE 7 9 4 5 1011.8 1011.5 0.0
24/03:30am 4.9 2.6 4.8 99 0.0 NE 6 6 3 3 1011.9 1011.6 0.0
24/03:00am 5.3 4.2 5.2 99 0.0 CALM 0 0 0 0 1011.9 1011.6 0.0
24/02:30am 5.1 3.9 4.8 98 0.1 CALM 0 0 0 0 1011.9 1011.6 0.0
24/02:00am 5.7 4.7 5.6 99 0.0 CALM 0 0 0 0 1012.0 1011.7 0.0
24/01:30am 5.9 4.9 5.8 99 0.0 CALM 0 0 0 0 1012.3 1012.0 0.0
24/01:00am 6.2 4.9 5.8 97 0.2 NE 2 6 1 3 1012.5 1012.2 0.0
24/12:30am 6.9 5.0 6.6 98 0.1 NE 6 6 3 3 1012.4 1012.1 0.0
24/12:00am 7.2 5.2 7.1 99 0.0 N 7 7 4 4 1012.6 1012.3 0.0
 
Date/Time
EST
Temp
°C
App
Temp
°C
Dew
Point
°C
Rel
Hum
%
Delta-T
°C
Wind Press
QNH
hPa
Press
MSL
hPa
Rain since
9am
mm
Dir  Spd
km/h
Gust
km/h
Spd
kts
Gust
kts
23/11:30pm 6.7 5.5 6.3 97 0.2 ENE 2 7 1 4 1012.6 1012.3 0.0
23/11:00pm 7.7 7.1 7.4 98 0.1 CALM 0 0 0 0 1012.5 1012.2 0.0
23/10:30pm 8.1 6.8 7.7 97 0.2 ENE 4 7 2 4 1012.7 1012.4 0.0

Other Formats:

Comma delimited format used in spreadsheet applications
http://www.bom.gov.au/fwo/IDN60801/IDN60801.94710.axf

JavaScript Object Notation format (JSON) in row-major order
http://www.bom.gov.au/fwo/IDN60801/IDN60801.94710.json